Time;durP1;ratioP1;P1;durP2;ratioP2;P2;SDS_P1;SDS_P2;PMS_P1;PMS_P2;Temp;Humidity;BMP_temperature;BMP_pressure;BME280_temperature;BME280_humidity;BME280_pressure;Samples;Min_cycle;Max_cycle;Signal;HPM_P1;HPM_P2
2022/07/17 00:01:20;;;;;;;7.57;1.60;;;;;;;;;;5060742;28;20048;-64
2022/07/17 00:03:47;;;;;;;9.18;1.70;;;;;;;;;;5077566;28;20478;-64
2022/07/17 00:06:15;;;;;;;5.30;1.70;;;;;;;;;;5076764;28;20044;-64
2022/07/17 00:08:42;;;;;;;7.20;1.92;;;;;;;;;;5078722;28;20159;-64
2022/07/17 00:11:10;;;;;;;10.93;1.75;;;;;;;;;;5079546;28;20097;-64
2022/07/17 00:13:37;;;;;;;7.63;2.00;;;;;;;;;;5062497;28;20059;-64
2022/07/17 00:16:06;;;;;;;7.05;1.90;;;;;;;;;;5076360;28;20043;-64
2022/07/17 00:18:33;;;;;;;6.43;1.77;;;;;;;;;;5077080;28;20125;-64
2022/07/17 00:21:00;;;;;;;4.80;1.85;;;;;;;;;;5080970;28;20040;-64
2022/07/17 00:23:27;;;;;;;9.43;2.05;;;;;;;;;;5076945;28;20056;-64
2022/07/17 00:25:55;;;;;;;12.32;2.70;;;;;;;;;;5073280;28;20048;-64
2022/07/17 00:28:22;;;;;;;9.45;2.10;;;;;;;;;;5081977;28;20512;-64
2022/07/17 00:30:49;;;;;;;5.25;1.80;;;;;;;;;;5071905;28;20051;-64
2022/07/17 00:33:17;;;;;;;9.73;2.42;;;;;;;;;;5073216;28;20049;-64
2022/07/17 00:35:45;;;;;;;6.70;2.25;;;;;;;;;;5078328;28;20048;-64
2022/07/17 00:38:13;;;;;;;8.50;2.63;;;;;;;;;;5080727;28;20122;-64
2022/07/17 00:40:40;;;;;;;5.55;2.33;;;;;;;;;;5074388;28;20670;-64
2022/07/17 00:43:07;;;;;;;8.80;2.03;;;;;;;;;;5073251;28;20052;-64
2022/07/17 00:45:35;;;;;;;8.25;2.20;;;;;;;;;;5073907;28;20044;-64
2022/07/17 00:48:03;;;;;;;7.45;2.47;;;;;;;;;;5076419;28;20074;-64
2022/07/17 00:50:32;;;;;;;7.00;2.00;;;;;;;;;;5080165;28;20071;-64
2022/07/17 00:52:59;;;;;;;8.63;2.33;;;;;;;;;;5058255;28;20104;-64
2022/07/17 00:55:27;;;;;;;7.47;2.20;;;;;;;;;;5077658;28;20047;-64
2022/07/17 00:57:54;;;;;;;8.07;2.38;;;;;;;;;;5075970;28;20051;-64
2022/07/17 01:00:22;;;;;;;5.65;2.13;;;;;;;;;;5071981;28;20129;-64
2022/07/17 01:02:50;;;;;;;8.85;2.72;;;;;;;;;;5077466;28;20052;-64
2022/07/17 01:05:18;;;;;;;6.28;2.40;;;;;;;;;;5069091;28;20041;-64
2022/07/17 01:07:47;;;;;;;9.23;2.60;;;;;;;;;;5070683;28;20052;-64
2022/07/17 01:10:16;;;;;;;11.27;2.30;;;;;;;;;;5056100;28;20075;-64
2022/07/17 01:12:43;;;;;;;6.65;2.60;;;;;;;;;;5073359;28;20072;-64
2022/07/17 01:15:12;;;;;;;5.85;2.45;;;;;;;;;;5079990;28;20048;-64
2022/07/17 01:17:39;;;;;;;9.45;2.65;;;;;;;;;;5073879;28;20048;-64
2022/07/17 01:20:07;;;;;;;8.88;2.50;;;;;;;;;;5079307;28;20097;-64
2022/07/17 01:22:41;;;;;;;6.47;2.60;;;;;;;;;;5076957;28;20066;-64
2022/07/17 01:25:09;;;;;;;8.70;2.78;;;;;;;;;;5076975;28;20063;-64
2022/07/17 01:27:37;;;;;;;7.25;2.50;;;;;;;;;;5075216;28;20410;-64
2022/07/17 01:30:04;;;;;;;8.98;2.70;;;;;;;;;;5074667;28;20376;-64
2022/07/17 01:32:35;;;;;;;9.77;2.90;;;;;;;;;;5080298;28;20043;-64
2022/07/17 01:35:02;;;;;;;14.90;2.60;;;;;;;;;;5075790;28;20097;-64
2022/07/17 01:37:29;;;;;;;9.30;3.17;;;;;;;;;;5078183;28;20537;-64
2022/07/17 01:39:58;;;;;;;5.57;2.38;;;;;;;;;;5073869;28;20097;-64
2022/07/17 01:42:27;;;;;;;8.32;2.75;;;;;;;;;;5074571;28;20059;-64
2022/07/17 01:44:54;;;;;;;8.55;3.00;;;;;;;;;;5077466;28;20053;-64
2022/07/17 01:47:22;;;;;;;9.88;3.25;;;;;;;;;;5076111;28;20697;-64
2022/07/17 01:49:50;;;;;;;10.60;2.90;;;;;;;;;;5053326;28;20714;-64
2022/07/17 01:52:17;;;;;;;6.00;2.38;;;;;;;;;;5072071;28;20044;-64
2022/07/17 01:54:45;;;;;;;7.95;3.20;;;;;;;;;;5075007;28;20059;-64
2022/07/17 01:57:14;;;;;;;9.35;2.90;;;;;;;;;;5073579;28;20056;-64
2022/07/17 01:59:41;;;;;;;6.15;2.30;;;;;;;;;;5075746;28;20678;-64
2022/07/17 02:02:09;;;;;;;7.50;3.10;;;;;;;;;;5052492;28;20651;-64
2022/07/17 02:04:37;;;;;;;12.00;2.83;;;;;;;;;;5055903;28;20055;-64
2022/07/17 02:07:04;;;;;;;7.00;2.50;;;;;;;;;;5056615;28;20112;-64
2022/07/17 02:09:31;;;;;;;10.48;3.22;;;;;;;;;;5062067;28;20044;-64
2022/07/17 02:11:58;;;;;;;9.63;2.90;;;;;;;;;;5053722;28;20513;-64
2022/07/17 02:14:27;;;;;;;4.88;2.35;;;;;;;;;;5074205;28;20621;-64
2022/07/17 02:16:54;;;;;;;7.60;2.83;;;;;;;;;;5075184;28;20102;-63
2022/07/17 02:19:22;;;;;;;9.93;2.90;;;;;;;;;;5079558;28;20538;-64
2022/07/17 02:21:49;;;;;;;7.65;2.45;;;;;;;;;;5056788;28;20138;-64
2022/07/17 02:24:16;;;;;;;5.65;2.60;;;;;;;;;;5074990;28;20048;-64
2022/07/17 02:26:43;;;;;;;6.15;2.53;;;;;;;;;;5073252;28;20055;-64
2022/07/17 02:29:11;;;;;;;7.72;2.53;;;;;;;;;;5075398;28;20050;-64
2022/07/17 02:31:39;;;;;;;11.38;2.92;;;;;;;;;;5058090;28;20052;-64
2022/07/17 02:34:06;;;;;;;7.15;2.65;;;;;;;;;;5059162;28;20052;-64
2022/07/17 02:36:34;;;;;;;8.55;3.22;;;;;;;;;;5054924;28;20075;-64
2022/07/17 02:39:02;;;;;;;9.40;2.72;;;;;;;;;;5076208;28;20048;-64
2022/07/17 02:41:29;;;;;;;8.85;2.58;;;;;;;;;;5073282;28;20051;-64
2022/07/17 02:43:56;;;;;;;8.18;2.47;;;;;;;;;;5074619;28;20047;-64
2022/07/17 02:46:23;;;;;;;8.50;2.50;;;;;;;;;;5054373;28;20052;-64
2022/07/17 02:48:52;;;;;;;6.72;2.78;;;;;;;;;;5072906;28;20663;-64
2022/07/17 02:51:19;;;;;;;8.02;2.10;;;;;;;;;;5077257;28;20048;-64
2022/07/17 02:53:46;;;;;;;7.43;2.75;;;;;;;;;;5074443;28;20055;-64
2022/07/17 02:56:13;;;;;;;8.77;3.08;;;;;;;;;;5075965;28;20726;-64
2022/07/17 02:58:41;;;;;;;8.43;2.40;;;;;;;;;;5074071;28;20063;-63
2022/07/17 03:01:08;;;;;;;6.13;2.10;;;;;;;;;;5074751;28;20056;-64
2022/07/17 03:03:35;;;;;;;8.23;2.55;;;;;;;;;;5071271;28;20059;-64
2022/07/17 03:06:04;;;;;;;9.13;2.60;;;;;;;;;;5071092;28;20044;-64
2022/07/17 03:08:31;;;;;;;7.22;2.50;;;;;;;;;;5076331;28;20134;-64
2022/07/17 03:10:58;;;;;;;10.45;2.90;;;;;;;;;;5070670;28;20112;-64
2022/07/17 03:13:25;;;;;;;6.60;2.72;;;;;;;;;;5074383;28;20047;-64
2022/07/17 03:15:52;;;;;;;5.75;1.92;;;;;;;;;;5057687;28;20044;-64
2022/07/17 03:18:20;;;;;;;10.52;2.40;;;;;;;;;;5058100;28;20061;-64
2022/07/17 03:20:47;;;;;;;5.00;2.03;;;;;;;;;;5077777;28;20048;-64
2022/07/17 03:23:15;;;;;;;7.75;2.40;;;;;;;;;;5074840;28;20052;-64
2022/07/17 03:25:43;;;;;;;8.65;2.15;;;;;;;;;;5055922;28;20056;-64
2022/07/17 03:28:10;;;;;;;8.25;2.30;;;;;;;;;;5076821;28;20053;-64
2022/07/17 03:30:37;;;;;;;6.93;2.25;;;;;;;;;;5073844;28;20058;-64
2022/07/17 03:33:04;;;;;;;9.98;1.95;;;;;;;;;;5074085;28;20044;-64
2022/07/17 03:35:31;;;;;;;7.93;2.22;;;;;;;;;;5081111;28;20482;-64
2022/07/17 03:37:59;;;;;;;9.18;2.30;;;;;;;;;;5076388;28;20048;-64
2022/07/17 03:40:27;;;;;;;4.78;1.90;;;;;;;;;;5074053;28;20063;-64
2022/07/17 03:42:54;;;;;;;8.70;2.50;;;;;;;;;;5073007;28;20048;-64
2022/07/17 03:45:22;;;;;;;10.32;2.72;;;;;;;;;;5059028;28;20052;-64
2022/07/17 03:47:49;;;;;;;11.05;2.28;;;;;;;;;;5070112;28;20066;-64
2022/07/17 03:50:16;;;;;;;8.95;2.38;;;;;;;;;;5075108;28;20048;-64
2022/07/17 03:52:43;;;;;;;6.03;2.63;;;;;;;;;;5079291;28;20574;-64
2022/07/17 03:55:11;;;;;;;8.23;2.25;;;;;;;;;;5078690;28;20071;-64
2022/07/17 03:57:39;;;;;;;8.18;2.28;;;;;;;;;;5076423;28;20040;-64
2022/07/17 04:00:07;;;;;;;8.95;2.58;;;;;;;;;;5078199;28;20040;-64
2022/07/17 04:02:34;;;;;;;6.63;1.98;;;;;;;;;;5075886;28;20062;-64
2022/07/17 04:05:01;;;;;;;9.68;1.88;;;;;;;;;;5054793;28;20121;-64
2022/07/17 04:07:29;;;;;;;7.50;1.90;;;;;;;;;;5076070;28;20048;-64
2022/07/17 04:09:57;;;;;;;9.63;1.88;;;;;;;;;;5076851;28;20048;-64
2022/07/17 04:12:24;;;;;;;7.88;1.75;;;;;;;;;;5077834;28;20045;-64
2022/07/17 04:14:53;;;;;;;8.00;2.00;;;;;;;;;;5072366;28;20074;-64
2022/07/17 04:17:20;;;;;;;7.75;2.10;;;;;;;;;;5078837;28;20667;-64
2022/07/17 04:19:48;;;;;;;7.43;1.73;;;;;;;;;;5079264;28;20464;-64
2022/07/17 04:22:15;;;;;;;8.73;2.00;;;;;;;;;;5071875;28;20048;-64
2022/07/17 04:24:42;;;;;;;4.32;1.52;;;;;;;;;;5080974;28;20165;-64
2022/07/17 04:27:10;;;;;;;9.15;1.65;;;;;;;;;;5078834;28;20044;-64
2022/07/17 04:29:37;;;;;;;8.90;1.90;;;;;;;;;;5080151;28;20525;-64
2022/07/17 04:32:07;;;;;;;5.43;1.58;;;;;;;;;;5075453;28;20048;-64
2022/07/17 04:34:34;;;;;;;5.75;2.10;;;;;;;;;;5074931;28;20392;-64
2022/07/17 04:37:01;;;;;;;9.70;1.90;;;;;;;;;;5073642;28;20707;-64
2022/07/17 04:39:29;;;;;;;5.10;1.63;;;;;;;;;;5076430;28;20513;-64
2022/07/17 04:41:56;;;;;;;6.38;2.08;;;;;;;;;;5078634;28;20050;-64
2022/07/17 04:44:23;;;;;;;8.20;1.90;;;;;;;;;;5081555;28;20102;-64
2022/07/17 04:46:51;;;;;;;6.45;2.20;;;;;;;;;;5079600;28;20048;-64
2022/07/17 04:49:19;;;;;;;9.45;2.15;;;;;;;;;;5075886;28;20140;-64
2022/07/17 04:51:46;;;;;;;5.82;1.85;;;;;;;;;;5073498;28;20126;-64
2022/07/17 04:54:13;;;;;;;7.40;1.80;;;;;;;;;;5078009;28;20101;-64
2022/07/17 04:56:41;;;;;;;7.40;2.10;;;;;;;;;;5076735;28;20695;-64
2022/07/17 04:59:08;;;;;;;6.35;2.00;;;;;;;;;;5079477;28;20048;-64
2022/07/17 05:01:35;;;;;;;9.93;2.08;;;;;;;;;;5078795;28;20056;-64
2022/07/17 05:04:04;;;;;;;6.82;1.85;;;;;;;;;;5076442;28;20711;-64
2022/07/17 05:06:32;;;;;;;4.80;1.95;;;;;;;;;;5078324;28;20526;-64
2022/07/17 05:09:00;;;;;;;9.27;2.05;;;;;;;;;;5073038;28;20052;-64
2022/07/17 05:11:27;;;;;;;7.90;2.13;;;;;;;;;;5058268;28;20040;-64
2022/07/17 05:13:54;;;;;;;9.32;2.35;;;;;;;;;;5071818;28;20040;-64
2022/07/17 05:16:21;;;;;;;11.95;2.00;;;;;;;;;;5080286;28;20116;-64
2022/07/17 05:18:49;;;;;;;7.80;1.90;;;;;;;;;;5075775;28;20627;-64
2022/07/17 05:21:16;;;;;;;11.13;2.10;;;;;;;;;;5075695;28;20044;-64
2022/07/17 05:23:44;;;;;;;6.65;1.65;;;;;;;;;;5077790;28;20055;-64
2022/07/17 05:26:12;;;;;;;9.32;2.05;;;;;;;;;;5074852;28;20053;-64
2022/07/17 05:28:39;;;;;;;8.05;1.75;;;;;;;;;;5078342;28;20052;-64
2022/07/17 05:31:06;;;;;;;11.05;2.00;;;;;;;;;;5073108;28;20047;-64
2022/07/17 05:33:34;;;;;;;8.02;1.92;;;;;;;;;;5058971;28;20055;-64
2022/07/17 05:36:01;;;;;;;6.32;1.70;;;;;;;;;;5057870;28;20056;-64
2022/07/17 05:38:28;;;;;;;10.18;1.75;;;;;;;;;;5076202;28;20044;-64
2022/07/17 05:40:56;;;;;;;9.07;1.92;;;;;;;;;;5072885;28;20051;-64
2022/07/17 05:43:24;;;;;;;9.57;1.80;;;;;;;;;;5078595;28;20052;-64
2022/07/17 05:45:51;;;;;;;9.82;1.60;;;;;;;;;;5056950;28;20063;-64
2022/07/17 05:48:18;;;;;;;5.55;1.67;;;;;;;;;;5078004;28;20049;-64
2022/07/17 05:50:45;;;;;;;9.65;1.90;;;;;;;;;;5072062;28;20052;-64
2022/07/17 05:53:14;;;;;;;8.27;1.98;;;;;;;;;;5069822;28;20044;-64
2022/07/17 05:55:41;;;;;;;9.60;2.08;;;;;;;;;;5078273;28;20458;-64
2022/07/17 05:58:10;;;;;;;7.55;2.17;;;;;;;;;;5073696;28;20040;-64
2022/07/17 06:00:37;;;;;;;7.50;1.77;;;;;;;;;;5074091;28;20049;-64
2022/07/17 06:03:04;;;;;;;10.23;1.83;;;;;;;;;;5077140;28;20052;-64
2022/07/17 06:05:32;;;;;;;7.10;1.70;;;;;;;;;;5078384;28;20048;-64
2022/07/17 06:07:59;;;;;;;6.28;2.00;;;;;;;;;;5077201;28;20048;-64
2022/07/17 06:10:27;;;;;;;8.98;1.70;;;;;;;;;;5059330;28;20051;-64
2022/07/17 06:12:54;;;;;;;4.93;1.58;;;;;;;;;;5056204;28;20083;-64
2022/07/17 06:15:23;;;;;;;5.88;1.40;;;;;;;;;;5078516;28;20487;-64
2022/07/17 06:17:51;;;;;;;5.85;1.77;;;;;;;;;;5077316;28;20502;-64
2022/07/17 06:20:18;;;;;;;11.63;1.63;;;;;;;;;;5076162;28;20051;-64
2022/07/17 06:22:45;;;;;;;9.25;1.95;;;;;;;;;;5081798;28;20052;-64
2022/07/17 06:25:12;;;;;;;8.82;1.52;;;;;;;;;;5068383;28;20044;-64
2022/07/17 06:27:40;;;;;;;6.00;1.52;;;;;;;;;;5077380;28;20040;-64
2022/07/17 06:30:08;;;;;;;7.35;1.63;;;;;;;;;;5072849;28;20127;-64
2022/07/17 06:32:37;;;;;;;5.80;1.38;;;;;;;;;;5056132;28;20071;-64
2022/07/17 06:35:04;;;;;;;5.22;1.42;;;;;;;;;;5075659;28;20045;-64
2022/07/17 06:37:31;;;;;;;6.47;1.20;;;;;;;;;;5063032;28;20136;-64
2022/07/17 06:39:58;;;;;;;7.18;1.38;;;;;;;;;;5074525;28;20076;-64
2022/07/17 06:42:26;;;;;;;6.15;1.15;;;;;;;;;;5059370;28;20051;-64
2022/07/17 06:44:53;;;;;;;7.72;1.30;;;;;;;;;;5075303;28;20048;-64
2022/07/17 06:47:20;;;;;;;7.10;1.25;;;;;;;;;;5066460;28;20689;-64
2022/07/17 06:49:49;;;;;;;10.00;1.45;;;;;;;;;;5070364;28;20460;-64
2022/07/17 06:52:16;;;;;;;6.38;1.17;;;;;;;;;;5080179;28;20101;-64
2022/07/17 06:54:43;;;;;;;8.70;1.92;;;;;;;;;;5051354;28;20624;-65
2022/07/17 06:57:10;;;;;;;8.63;1.42;;;;;;;;;;5076403;28;20495;-64
2022/07/17 06:59:37;;;;;;;6.13;1.38;;;;;;;;;;5058124;28;20157;-64
2022/07/17 07:02:04;;;;;;;7.00;1.50;;;;;;;;;;5073677;28;20453;-64
2022/07/17 07:04:32;;;;;;;8.85;1.65;;;;;;;;;;5077315;28;20040;-65
2022/07/17 07:07:00;;;;;;;9.63;1.85;;;;;;;;;;5059163;28;20070;-65
2022/07/17 07:09:28;;;;;;;7.32;1.30;;;;;;;;;;5075489;28;20062;-64
2022/07/17 07:11:55;;;;;;;8.82;1.50;;;;;;;;;;5079899;28;20055;-64
2022/07/17 07:14:22;;;;;;;13.35;1.70;;;;;;;;;;5075038;28;20074;-64
2022/07/17 07:16:49;;;;;;;6.30;1.13;;;;;;;;;;5076193;28;20047;-64
2022/07/17 07:19:16;;;;;;;5.10;1.25;;;;;;;;;;5080036;28;20051;-64
2022/07/17 07:21:44;;;;;;;5.38;1.20;;;;;;;;;;5081190;28;20052;-64
2022/07/17 07:24:12;;;;;;;6.25;1.58;;;;;;;;;;5062604;28;20048;-64
2022/07/17 07:26:39;;;;;;;8.30;1.20;;;;;;;;;;5078236;28;20055;-64
2022/07/17 07:29:06;;;;;;;6.32;1.30;;;;;;;;;;5062164;28;20044;-64
2022/07/17 07:31:34;;;;;;;7.03;1.40;;;;;;;;;;5078196;28;20458;-64
2022/07/17 07:34:01;;;;;;;8.02;1.63;;;;;;;;;;5072977;28;20048;-64
2022/07/17 07:36:28;;;;;;;12.80;1.67;;;;;;;;;;5079745;28;20418;-64
2022/07/17 07:38:56;;;;;;;10.85;1.33;;;;;;;;;;5079019;28;20102;-64
2022/07/17 07:41:24;;;;;;;9.10;1.50;;;;;;;;;;5077402;28;20052;-64
2022/07/17 07:43:51;;;;;;;12.50;1.77;;;;;;;;;;5081572;28;20044;-65
2022/07/17 07:46:19;;;;;;;9.00;1.63;;;;;;;;;;5080382;28;20048;-65
2022/07/17 07:48:47;;;;;;;5.20;1.10;;;;;;;;;;5060277;28;20059;-64
2022/07/17 07:51:14;;;;;;;6.18;1.20;;;;;;;;;;5057570;28;20149;-64
2022/07/17 07:53:41;;;;;;;10.70;2.20;;;;;;;;;;5060240;28;20083;-64
2022/07/17 07:56:08;;;;;;;7.65;1.30;;;;;;;;;;5075619;28;20052;-64
2022/07/17 07:58:37;;;;;;;9.25;1.30;;;;;;;;;;5058460;28;20060;-65
2022/07/17 08:01:05;;;;;;;7.95;1.50;;;;;;;;;;5076177;28;20063;-64
2022/07/17 08:03:32;;;;;;;11.07;1.83;;;;;;;;;;5073334;28;20044;-65
2022/07/17 08:05:59;;;;;;;9.80;1.33;;;;;;;;;;5074140;28;20043;-65
2022/07/17 08:08:27;;;;;;;8.57;1.23;;;;;;;;;;5077278;28;20105;-64
2022/07/17 08:10:54;;;;;;;6.03;1.38;;;;;;;;;;5072281;28;20123;-65
2022/07/17 08:13:21;;;;;;;8.88;1.42;;;;;;;;;;5076187;28;20647;-64
2022/07/17 08:15:50;;;;;;;6.70;1.08;;;;;;;;;;5073319;28;20084;-64
2022/07/17 08:18:17;;;;;;;5.50;1.10;;;;;;;;;;5071518;28;20059;-64
2022/07/17 08:20:44;;;;;;;14.23;2.00;;;;;;;;;;5077349;28;20105;-64
2022/07/17 08:23:11;;;;;;;10.40;1.40;;;;;;;;;;5076645;28;20055;-65
2022/07/17 08:25:39;;;;;;;7.00;1.35;;;;;;;;;;5077287;28;20048;-64
2022/07/17 08:28:06;;;;;;;4.05;1.30;;;;;;;;;;5058877;28;20062;-64
2022/07/17 08:30:34;;;;;;;5.95;1.20;;;;;;;;;;5062210;28;20070;-64
2022/07/17 08:33:03;;;;;;;9.57;1.30;;;;;;;;;;5080934;28;20546;-64
2022/07/17 08:35:31;;;;;;;5.63;1.25;;;;;;;;;;5081022;28;20055;-65
2022/07/17 08:38:00;;;;;;;5.13;1.20;;;;;;;;;;5057951;28;20052;-64
2022/07/17 08:40:28;;;;;;;5.78;1.02;;;;;;;;;;5064824;28;20130;-64
2022/07/17 08:42:55;;;;;;;4.53;1.00;;;;;;;;;;5059231;28;20063;-65
2022/07/17 08:45:23;;;;;;;7.38;1.10;;;;;;;;;;5080633;28;20326;-64
2022/07/17 08:47:51;;;;;;;6.13;1.13;;;;;;;;;;5078478;28;20048;-64
2022/07/17 08:50:22;;;;;;;4.90;1.10;;;;;;;;;;5083599;28;20052;-65
2022/07/17 08:52:50;;;;;;;4.18;1.17;;;;;;;;;;5073809;28;20051;-64
2022/07/17 08:55:17;;;;;;;5.93;1.30;;;;;;;;;;5082893;28;20044;-64
2022/07/17 08:57:45;;;;;;;5.70;1.23;;;;;;;;;;5076918;28;20055;-64
2022/07/17 09:00:13;;;;;;;6.00;0.98;;;;;;;;;;5068366;28;20045;-65
2022/07/17 09:02:40;;;;;;;7.88;1.42;;;;;;;;;;5075693;28;20507;-65
2022/07/17 09:05:09;;;;;;;3.30;1.00;;;;;;;;;;5070111;28;20037;-65
2022/07/17 09:07:46;;;;;;;4.43;1.38;;;;;;;;;;5057865;28;20115;-65
2022/07/17 09:10:14;;;;;;;6.30;1.20;;;;;;;;;;5075661;28;20055;-64
2022/07/17 09:12:41;;;;;;;7.28;1.52;;;;;;;;;;5079771;28;20051;-64
2022/07/17 09:15:15;;;;;;;4.20;1.20;;;;;;;;;;5079986;28;20824;-64
2022/07/17 09:17:48;;;;;;;3.63;1.00;;;;;;;;;;5078154;28;20586;-64
2022/07/17 09:20:16;;;;;;;3.58;1.17;;;;;;;;;;5077903;28;20107;-64
2022/07/17 09:22:45;;;;;;;6.50;1.20;;;;;;;;;;5076488;28;20044;-65
2022/07/17 09:25:13;;;;;;;6.78;1.33;;;;;;;;;;5077882;28;20075;-65
2022/07/17 09:27:40;;;;;;;4.15;1.20;;;;;;;;;;5083918;28;20048;-64
2022/07/17 09:30:11;;;;;;;5.20;1.40;;;;;;;;;;5073507;28;20493;-64
2022/07/17 09:32:39;;;;;;;7.28;1.40;;;;;;;;;;5079865;28;20048;-64
2022/07/17 09:35:07;;;;;;;5.35;1.40;;;;;;;;;;5072797;28;20109;-64
2022/07/17 09:37:34;;;;;;;1.60;0.93;;;;;;;;;;5076142;28;20048;-65
2022/07/17 09:40:04;;;;;;;4.43;1.10;;;;;;;;;;5081535;28;20044;-65
2022/07/17 09:42:31;;;;;;;3.92;1.35;;;;;;;;;;5078830;28;20040;-65
2022/07/17 09:44:59;;;;;;;4.40;1.38;;;;;;;;;;5082944;28;20052;-64
2022/07/17 09:47:27;;;;;;;4.38;1.10;;;;;;;;;;5075600;28;20052;-64
2022/07/17 09:49:55;;;;;;;6.50;1.50;;;;;;;;;;5082028;28;20411;-65
2022/07/17 09:52:24;;;;;;;3.00;1.10;;;;;;;;;;5059385;28;20055;-65
2022/07/17 09:54:52;;;;;;;3.75;1.40;;;;;;;;;;5078023;28;20055;-65
2022/07/17 09:57:21;;;;;;;4.45;1.15;;;;;;;;;;5081352;28;20051;-65
2022/07/17 09:59:50;;;;;;;4.90;1.23;;;;;;;;;;5059747;28;20101;-65
2022/07/17 10:02:18;;;;;;;5.88;1.20;;;;;;;;;;5078442;28;20058;-65
2022/07/17 10:04:46;;;;;;;4.13;1.30;;;;;;;;;;5061913;28;20063;-65
2022/07/17 10:07:13;;;;;;;3.72;1.05;;;;;;;;;;5073374;28;20132;-65
2022/07/17 10:09:41;;;;;;;3.42;1.33;;;;;;;;;;5076542;28;20056;-65
2022/07/17 10:12:09;;;;;;;3.05;1.30;;;;;;;;;;5075291;28;20673;-65
2022/07/17 10:14:41;;;;;;;3.97;1.30;;;;;;;;;;5082150;28;20051;-64
2022/07/17 10:17:08;;;;;;;4.18;1.23;;;;;;;;;;5071076;28;20072;-64
2022/07/17 10:19:35;;;;;;;2.28;1.00;;;;;;;;;;5077277;28;20778;-65
2022/07/17 10:22:07;;;;;;;6.68;1.50;;;;;;;;;;5076089;28;20048;-65
2022/07/17 10:24:34;;;;;;;5.45;1.30;;;;;;;;;;5076045;28;20036;-65
2022/07/17 10:27:01;;;;;;;5.55;1.30;;;;;;;;;;5075008;28;20051;-65
2022/07/17 10:29:33;;;;;;;3.03;1.20;;;;;;;;;;5081941;28;20040;-65
2022/07/17 10:32:02;;;;;;;3.22;1.10;;;;;;;;;;5081501;28;20104;-65
2022/07/17 10:34:39;;;;;;;2.67;1.20;;;;;;;;;;5072173;28;20479;-65
2022/07/17 10:37:20;;;;;;;4.80;1.38;;;;;;;;;;5077192;28;20196;-65
2022/07/17 10:40:09;;;;;;;6.03;1.67;;;;;;;;;;5075853;28;20048;-65
2022/07/17 10:42:39;;;;;;;5.38;1.40;;;;;;;;;;5073817;28;20055;-65
2022/07/17 10:45:08;;;;;;;7.28;1.58;;;;;;;;;;5072739;28;20067;-65
2022/07/17 10:47:45;;;;;;;3.20;1.30;;;;;;;;;;5075481;28;20083;-65
2022/07/17 10:50:12;;;;;;;2.95;1.33;;;;;;;;;;5072456;28;20048;-65
2022/07/17 10:52:40;;;;;;;6.03;1.58;;;;;;;;;;5049939;28;20695;-65
2022/07/17 10:55:07;;;;;;;5.70;1.40;;;;;;;;;;5078086;28;20055;-65
2022/07/17 10:57:35;;;;;;;5.13;1.50;;;;;;;;;;5075772;28;20666;-65
2022/07/17 11:00:02;;;;;;;4.90;1.63;;;;;;;;;;5077822;28;20040;-65
2022/07/17 11:02:30;;;;;;;4.63;1.60;;;;;;;;;;5070553;28;20056;-65
2022/07/17 11:05:08;;;;;;;5.82;2.03;;;;;;;;;;5070700;28;20161;-66
2022/07/17 11:07:35;;;;;;;3.80;1.40;;;;;;;;;;5074417;28;20098;-65
2022/07/17 11:10:02;;;;;;;3.47;1.33;;;;;;;;;;5076334;28;20059;-66
2022/07/17 11:12:33;;;;;;;5.45;1.85;;;;;;;;;;5075184;28;20063;-65
2022/07/17 11:15:01;;;;;;;4.63;1.60;;;;;;;;;;5074000;28;20618;-65
2022/07/17 11:17:28;;;;;;;3.97;1.48;;;;;;;;;;5074468;28;20047;-65
2022/07/17 11:19:55;;;;;;;4.53;1.67;;;;;;;;;;5074178;28;20056;-65
2022/07/17 11:22:25;;;;;;;3.45;1.90;;;;;;;;;;5076220;28;20052;-65
2022/07/17 11:24:52;;;;;;;6.07;2.00;;;;;;;;;;5078924;28;20052;-65
2022/07/17 11:27:21;;;;;;;4.75;1.70;;;;;;;;;;5072818;28;20101;-65
2022/07/17 11:29:49;;;;;;;2.78;1.52;;;;;;;;;;5070344;28;20040;-65
2022/07/17 11:32:16;;;;;;;4.63;1.83;;;;;;;;;;5078046;28;20056;-65
2022/07/17 11:34:43;;;;;;;5.65;1.67;;;;;;;;;;5075774;28;20060;-65
2022/07/17 11:37:11;;;;;;;4.97;1.58;;;;;;;;;;5072099;28;20071;-65
2022/07/17 11:39:41;;;;;;;3.95;1.80;;;;;;;;;;5072971;28;20044;-65
2022/07/17 11:42:09;;;;;;;4.82;1.58;;;;;;;;;;5075657;28;20048;-66
2022/07/17 11:44:36;;;;;;;4.18;1.70;;;;;;;;;;5076560;28;20474;-66
2022/07/17 11:47:04;;;;;;;5.38;2.00;;;;;;;;;;5073579;28;20487;-65
2022/07/17 11:49:32;;;;;;;4.03;1.90;;;;;;;;;;5080548;28;20478;-66
2022/07/17 11:52:00;;;;;;;7.22;1.90;;;;;;;;;;5071993;28;20071;-66
2022/07/17 11:54:29;;;;;;;3.20;1.60;;;;;;;;;;5079844;28;20048;-65
2022/07/17 11:56:58;;;;;;;2.25;1.50;;;;;;;;;;5077015;28;20049;-65
2022/07/17 11:59:27;;;;;;;4.70;1.80;;;;;;;;;;5078132;28;20072;-65
2022/07/17 12:01:54;;;;;;;4.57;1.90;;;;;;;;;;5080975;28;20060;-66
2022/07/17 12:04:21;;;;;;;6.10;2.17;;;;;;;;;;5083101;28;20536;-65
2022/07/17 12:07:00;;;;;;;2.85;1.60;;;;;;;;;;5076637;28;20055;-66
2022/07/17 12:09:28;;;;;;;4.13;2.00;;;;;;;;;;5075106;28;20052;-66
2022/07/17 12:11:55;;;;;;;2.22;1.60;;;;;;;;;;5080630;28;20059;-67
2022/07/17 12:14:24;;;;;;;4.15;2.05;;;;;;;;;;5079393;28;20124;-66
2022/07/17 12:16:51;;;;;;;2.90;1.60;;;;;;;;;;5082522;28;20036;-66
2022/07/17 12:19:20;;;;;;;4.63;1.90;;;;;;;;;;5061589;28;20052;-66
2022/07/17 12:21:53;;;;;;;5.90;2.33;;;;;;;;;;5080648;28;20879;-66
2022/07/17 12:24:21;;;;;;;3.85;2.00;;;;;;;;;;5084070;28;20505;-66
2022/07/17 12:26:49;;;;;;;4.03;1.83;;;;;;;;;;5079198;28;20078;-66
2022/07/17 12:29:16;;;;;;;2.92;1.85;;;;;;;;;;5056105;28;20468;-66
2022/07/17 12:31:44;;;;;;;2.90;1.83;;;;;;;;;;5071578;28;20063;-66
2022/07/17 12:34:12;;;;;;;3.03;2.10;;;;;;;;;;5079819;28;20036;-66
2022/07/17 12:36:39;;;;;;;4.25;2.15;;;;;;;;;;5076316;28;20085;-66
2022/07/17 12:39:06;;;;;;;3.35;2.03;;;;;;;;;;5076354;28;20047;-66
2022/07/17 12:41:34;;;;;;;3.90;2.03;;;;;;;;;;5065816;28;20043;-66
2022/07/17 12:44:01;;;;;;;4.18;2.10;;;;;;;;;;5073658;28;20037;-66
2022/07/17 12:46:28;;;;;;;3.55;1.95;;;;;;;;;;5084217;28;20044;-66
2022/07/17 12:48:57;;;;;;;3.85;2.13;;;;;;;;;;5074650;28;20059;-66
2022/07/17 12:51:24;;;;;;;3.45;2.20;;;;;;;;;;5079679;28;20053;-66
2022/07/17 12:53:51;;;;;;;4.03;2.10;;;;;;;;;;5083061;28;20079;-65
2022/07/17 12:56:18;;;;;;;2.90;2.00;;;;;;;;;;5057210;28;20051;-67
2022/07/17 12:58:45;;;;;;;5.93;2.25;;;;;;;;;;5070922;28;20464;-66
2022/07/17 13:01:13;;;;;;;5.57;2.15;;;;;;;;;;5079930;28;20048;-66
2022/07/17 13:03:40;;;;;;;3.80;2.15;;;;;;;;;;5081720;28;20478;-66
2022/07/17 13:06:09;;;;;;;3.65;2.00;;;;;;;;;;5082634;28;20169;-65
2022/07/17 13:08:36;;;;;;;3.13;1.98;;;;;;;;;;5059459;28;20058;-66
2022/07/17 13:11:05;;;;;;;3.20;2.10;;;;;;;;;;5078636;28;20052;-66
2022/07/17 13:13:32;;;;;;;3.03;2.00;;;;;;;;;;5082349;28;20105;-66
2022/07/17 13:15:59;;;;;;;5.47;2.30;;;;;;;;;;5080220;28;20040;-66
2022/07/17 13:18:26;;;;;;;3.63;2.10;;;;;;;;;;5073568;28;20670;-66
2022/07/17 13:20:54;;;;;;;3.22;2.08;;;;;;;;;;5081095;28;20116;-65
2022/07/17 13:23:23;;;;;;;3.80;2.17;;;;;;;;;;5075369;28;20106;-66
2022/07/17 13:25:50;;;;;;;3.83;2.35;;;;;;;;;;5071841;28;20091;-66
2022/07/17 13:28:17;;;;;;;4.53;2.55;;;;;;;;;;5077087;28;20502;-66
2022/07/17 13:30:44;;;;;;;4.22;2.20;;;;;;;;;;5079650;28;20495;-66
2022/07/17 13:33:12;;;;;;;3.13;2.00;;;;;;;;;;5077986;28;20121;-67
2022/07/17 13:35:39;;;;;;;5.00;2.60;;;;;;;;;;5082771;28;20105;-66
2022/07/17 13:38:07;;;;;;;4.63;2.42;;;;;;;;;;5075345;28;20600;-66
2022/07/17 13:40:36;;;;;;;5.32;2.40;;;;;;;;;;5080362;28;20067;-67
2022/07/17 13:43:04;;;;;;;6.25;2.42;;;;;;;;;;5081598;28;20495;-66
2022/07/17 13:45:32;;;;;;;3.92;2.45;;;;;;;;;;5076262;28;20063;-66
2022/07/17 13:47:59;;;;;;;6.75;2.40;;;;;;;;;;5076942;28;20178;-66
2022/07/17 13:50:26;;;;;;;2.90;2.47;;;;;;;;;;5078533;28;20661;-66
2022/07/17 13:52:53;;;;;;;5.60;2.45;;;;;;;;;;5072659;28;20122;-66
2022/07/17 13:55:21;;;;;;;3.53;2.15;;;;;;;;;;5054720;28;20059;-66
2022/07/17 13:57:49;;;;;;;4.45;2.65;;;;;;;;;;5074638;28;20786;-66
2022/07/17 14:00:17;;;;;;;4.32;2.60;;;;;;;;;;5075863;28;20108;-66
2022/07/17 14:02:44;;;;;;;4.45;2.20;;;;;;;;;;5075611;28;20648;-66
2022/07/17 14:05:12;;;;;;;2.80;2.10;;;;;;;;;;5073156;28;20044;-66
2022/07/17 14:07:39;;;;;;;6.18;2.47;;;;;;;;;;5058748;28;20109;-66
2022/07/17 14:10:06;;;;;;;4.25;2.40;;;;;;;;;;5074519;28;20057;-66
2022/07/17 14:12:34;;;;;;;2.85;2.25;;;;;;;;;;5078400;28;20097;-67
2022/07/17 14:15:02;;;;;;;4.43;2.05;;;;;;;;;;5051123;28;20040;-66
2022/07/17 14:17:30;;;;;;;5.00;2.38;;;;;;;;;;5076041;28;20093;-66
2022/07/17 14:19:57;;;;;;;5.03;2.53;;;;;;;;;;5051184;28;20350;-66
2022/07/17 14:22:24;;;;;;;3.95;2.45;;;;;;;;;;5081380;28;20047;-66
2022/07/17 14:24:52;;;;;;;4.30;2.38;;;;;;;;;;5079048;28;20055;-66
2022/07/17 14:27:21;;;;;;;4.95;2.50;;;;;;;;;;5071941;28;20123;-66
2022/07/17 14:29:48;;;;;;;3.38;2.38;;;;;;;;;;5072597;28;20052;-66
2022/07/17 14:32:17;;;;;;;3.35;2.53;;;;;;;;;;5078416;28;20052;-66
2022/07/17 14:34:44;;;;;;;6.43;2.50;;;;;;;;;;5070085;28;20454;-66
2022/07/17 14:37:11;;;;;;;5.03;2.72;;;;;;;;;;5069787;28;20058;-66
2022/07/17 14:39:38;;;;;;;3.20;2.42;;;;;;;;;;5080288;28;20055;-66
2022/07/17 14:42:06;;;;;;;4.80;2.17;;;;;;;;;;5068785;28;20749;-66
2022/07/17 14:44:34;;;;;;;3.50;2.50;;;;;;;;;;5081133;28;20063;-66
2022/07/17 14:47:01;;;;;;;6.47;2.60;;;;;;;;;;5074091;28;20041;-66